Time;durP1;ratioP1;P1;durP2;ratioP2;P2;SDS_P1;SDS_P2;PMS_P1;PMS_P2;Temp;Humidity;BMP_temperature;BMP_pressure;BME280_temperature;BME280_humidity;BME280_pressure;Samples;Min_cycle;Max_cycle;Signal;HPM_P1;HPM_P2
2021/08/02 00:01:54;;;;;;;3.60;3.30;;;;;;;14.43;96.69;99575.63;5043374;28;20262;-76
2021/08/02 00:04:25;;;;;;;6.70;4.50;;;;;;;14.44;97.01;99575.53;5043718;28;20196;-76
2021/08/02 00:06:53;;;;;;;4.63;4.10;;;;;;;14.52;96.97;99587.47;5043983;28;20190;-76
2021/08/02 00:09:24;;;;;;;6.07;3.37;;;;;;;14.54;96.52;99596.13;5043717;28;20208;-76
2021/08/02 00:11:55;;;;;;;6.23;3.30;;;;;;;14.48;96.20;99605.97;5047303;28;20299;-76
2021/08/02 00:14:22;;;;;;;3.33;3.03;;;;;;;14.43;96.32;99602.75;5045899;28;20198;-76
2021/08/02 00:16:51;;;;;;;5.00;3.00;;;;;;;14.36;95.97;99610.97;5043158;28;20684;-76
2021/08/02 00:19:18;;;;;;;3.67;3.17;;;;;;;14.41;96.02;99622.97;5043291;28;20620;-76
2021/08/02 00:21:47;;;;;;;3.60;3.30;;;;;;;14.43;95.82;99631.63;5044626;28;20862;-76
2021/08/02 00:24:14;;;;;;;3.10;2.90;;;;;;;14.42;95.47;99647.44;5042833;28;20209;-76
2021/08/02 00:26:41;;;;;;;3.07;2.80;;;;;;;14.41;95.37;99656.22;5043037;28;20256;-76
2021/08/02 00:29:08;;;;;;;3.00;2.17;;;;;;;14.33;94.86;99669.75;5044708;28;20202;-76
2021/08/02 00:31:36;;;;;;;3.37;3.07;;;;;;;14.33;95.59;99666.25;5043527;28;20243;-76
2021/08/02 00:34:02;;;;;;;3.00;2.80;;;;;;;14.43;94.99;99664.88;5042248;28;20688;-76
2021/08/02 00:36:35;;;;;;;4.00;2.90;;;;;;;14.60;94.79;99667.59;5045070;28;20663;-76
2021/08/02 00:39:09;;;;;;;2.93;2.63;;;;;;;14.73;94.29;99695.91;5045162;28;20198;-77
2021/08/02 00:41:59;;;;;;;3.03;2.83;;;;;;;14.92;93.60;99719.53;5046188;28;20632;-76
2021/08/02 00:44:50;;;;;;;3.30;2.40;;;;;;;15.01;92.95;99738.34;5043047;28;20194;-76
2021/08/02 00:47:18;;;;;;;4.10;3.67;;;;;;;14.97;92.85;99757.81;5044728;28;20225;-76
2021/08/02 00:50:03;;;;;;;4.40;3.70;;;;;;;14.81;92.79;99752.44;5043095;28;20201;-76
2021/08/02 00:52:32;;;;;;;4.97;3.20;;;;;;;14.75;93.18;99742.22;5042120;28;20312;-76
2021/08/02 00:55:04;;;;;;;3.93;3.63;;;;;;;14.62;93.04;99741.09;5042592;28;20197;-76
2021/08/02 00:57:36;;;;;;;4.40;4.10;;;;;;;14.53;93.56;99744.97;5042958;28;20223;-76
2021/08/02 01:00:07;;;;;;;5.53;4.00;;;;;;;14.43;93.77;99728.78;5042879;28;20331;-76
2021/08/02 01:02:38;;;;;;;4.60;4.23;;;;;;;14.43;94.16;99720.91;5042920;28;20227;-76
2021/08/02 01:05:07;;;;;;;5.23;3.90;;;;;;;14.36;94.32;99735.22;5042515;28;20201;-76
2021/08/02 01:07:39;;;;;;;4.27;3.67;;;;;;;14.38;93.94;99729.91;5043941;28;20255;-76
2021/08/02 01:10:08;;;;;;;4.17;3.87;;;;;;;14.28;93.85;99746.06;5044885;28;20677;-76
2021/08/02 01:12:37;;;;;;;3.90;3.50;;;;;;;14.33;93.67;99751.13;5045469;28;20229;-76
2021/08/02 01:15:04;;;;;;;6.60;3.90;;;;;;;14.35;93.27;99759.78;5044880;28;20205;-76
2021/08/02 01:17:32;;;;;;;3.80;3.27;;;;;;;14.26;93.30;99755.78;5046302;28;20217;-76
2021/08/02 01:19:59;;;;;;;3.07;2.80;;;;;;;14.20;93.78;99756.06;5043895;28;20209;-76
2021/08/02 01:22:30;;;;;;;3.50;3.30;;;;;;;14.07;93.66;99754.91;5041230;28;20616;-76
2021/08/02 01:24:56;;;;;;;5.37;3.53;;;;;;;14.03;94.33;99748.97;5043095;28;20204;-76
2021/08/02 01:27:45;;;;;;;3.97;3.67;;;;;;;14.16;94.03;99744.00;5043439;28;20208;-76
2021/08/02 01:30:20;;;;;;;8.20;3.57;;;;;;;14.04;93.58;99757.69;5052672;28;20291;-76
2021/08/02 01:32:48;;;;;;;4.10;3.67;;;;;;;13.99;93.94;99760.50;5052351;28;20573;-76
2021/08/02 01:35:15;;;;;;;3.90;3.33;;;;;;;13.81;93.95;99756.06;5051304;28;20213;-76
2021/08/02 01:37:44;;;;;;;3.97;3.40;;;;;;;13.66;95.15;99729.56;5052660;28;20580;-76
2021/08/02 01:40:12;;;;;;;3.70;3.40;;;;;;;13.61;95.38;99722.81;5052595;28;20221;-76
2021/08/02 01:42:38;;;;;;;3.83;3.60;;;;;;;13.67;95.37;99720.78;5051617;28;20292;-76
2021/08/02 01:45:07;;;;;;;4.00;3.60;;;;;;;13.82;95.31;99732.38;5052829;28;20208;-76
2021/08/02 01:47:40;;;;;;;4.23;3.40;;;;;;;13.74;94.84;99739.75;5052498;28;20212;-76
2021/08/02 01:50:15;;;;;;;4.37;3.70;;;;;;;13.75;94.79;99751.06;5052915;28;20242;-76
2021/08/02 01:52:51;;;;;;;3.63;3.03;;;;;;;13.81;94.45;99762.16;5051660;28;20233;-76
2021/08/02 01:55:21;;;;;;;3.20;2.90;;;;;;;13.89;93.99;99778.44;5052775;28;20207;-76
2021/08/02 01:57:54;;;;;;;3.10;2.90;;;;;;;14.05;93.25;99798.75;5052703;28;20215;-76
2021/08/02 02:00:21;;;;;;;4.50;3.33;;;;;;;14.10;92.63;99826.50;5052303;28;20209;-76
2021/08/02 02:02:53;;;;;;;3.23;3.00;;;;;;;14.22;91.94;99847.88;5051781;28;20231;-76
2021/08/02 02:05:22;;;;;;;3.60;3.00;;;;;;;14.28;91.26;99876.50;5052485;28;20213;-76
2021/08/02 02:07:56;;;;;;;3.63;2.97;;;;;;;14.22;90.79;99895.13;5051954;28;20201;-76
2021/08/02 02:10:25;;;;;;;3.93;2.93;;;;;;;14.19;90.95;99900.50;5047620;28;20673;-76
2021/08/02 02:12:54;;;;;;;4.30;2.77;;;;;;;14.16;90.64;99895.41;5050391;28;20336;-76
2021/08/02 02:15:20;;;;;;;4.17;3.17;;;;;;;13.86;91.80;99873.00;5052222;28;20262;-76
2021/08/02 02:17:48;;;;;;;3.73;3.43;;;;;;;13.73;92.44;99850.81;5052246;28;20207;-76
2021/08/02 02:20:15;;;;;;;3.97;3.67;;;;;;;13.38;94.02;99816.41;5051865;28;20217;-76
2021/08/02 02:22:42;;;;;;;4.50;4.10;;;;;;;13.46;94.31;99790.75;5050998;28;20224;-76
2021/08/02 02:25:12;;;;;;;4.40;4.07;;;;;;;13.43;94.69;99797.88;5052150;28;20216;-76
2021/08/02 02:27:39;;;;;;;6.50;4.33;;;;;;;13.49;94.23;99795.84;5052032;28;20212;-76
2021/08/02 02:30:07;;;;;;;3.83;3.53;;;;;;;13.56;93.60;99814.81;5051839;28;20211;-76
2021/08/02 02:32:36;;;;;;;4.93;4.43;;;;;;;13.54;93.57;99821.00;5050808;28;20233;-76
2021/08/02 02:35:05;;;;;;;4.73;4.37;;;;;;;13.55;93.19;99839.31;5050917;28;20204;-76
2021/08/02 02:37:31;;;;;;;15.07;5.47;;;;;;;13.53;93.08;99840.28;5051540;28;20593;-76
2021/08/02 02:39:58;;;;;;;5.80;5.20;;;;;;;13.29;93.92;99819.38;5050597;28;20627;-76
2021/08/02 02:42:27;;;;;;;8.93;5.60;;;;;;;13.30;94.59;99816.72;5046130;28;20305;-76
2021/08/02 02:44:54;;;;;;;5.57;5.17;;;;;;;13.30;94.28;99827.22;5051654;28;20199;-76
2021/08/02 02:47:22;;;;;;;7.13;6.13;;;;;;;13.13;94.04;99820.91;5051845;28;20211;-76
2021/08/02 02:49:49;;;;;;;7.83;5.27;;;;;;;12.90;95.27;99791.19;5051644;28;20246;-76
2021/08/02 02:52:16;;;;;;;6.97;6.37;;;;;;;12.95;95.89;99783.19;5051082;28;20285;-76
2021/08/02 02:54:46;;;;;;;6.77;6.00;;;;;;;12.85;95.44;99785.31;5051640;28;20705;-76
2021/08/02 02:57:13;;;;;;;6.53;6.03;;;;;;;12.96;95.81;99783.09;5051338;28;20207;-76
2021/08/02 02:59:41;;;;;;;6.23;5.60;;;;;;;13.09;94.84;99799.19;5051346;28;20278;-76
2021/08/02 03:02:07;;;;;;;18.80;6.80;;;;;;;13.10;94.71;99814.00;5050956;28;20242;-76
2021/08/02 03:04:39;;;;;;;8.37;6.60;;;;;;;13.20;94.05;99840.69;5051539;28;20210;-76
2021/08/02 03:07:10;;;;;;;6.60;6.00;;;;;;;13.26;93.92;99854.44;5051513;28;20351;-76
2021/08/02 03:09:40;;;;;;;8.83;6.77;;;;;;;13.30;93.17;99869.16;5051410;28;20208;-76
2021/08/02 03:12:08;;;;;;;6.87;6.27;;;;;;;13.19;93.33;99883.56;5044858;28;20281;-76
2021/08/02 03:14:35;;;;;;;8.07;6.03;;;;;;;13.13;93.75;99874.16;5051029;28;20224;-76
2021/08/02 03:17:06;;;;;;;7.47;6.77;;;;;;;13.15;93.41;99868.84;5051761;28;20219;-76
2021/08/02 03:19:33;;;;;;;8.03;5.80;;;;;;;13.15;93.40;99882.81;5054087;28;20207;-76
2021/08/02 03:22:01;;;;;;;7.40;6.07;;;;;;;12.98;93.74;99870.34;5054463;28;20228;-76
2021/08/02 03:24:35;;;;;;;5.63;5.13;;;;;;;13.20;93.57;99874.75;5055028;28;20203;-76
2021/08/02 03:27:07;;;;;;;6.57;5.53;;;;;;;13.10;93.13;99893.47;5055238;28;20212;-76
2021/08/02 03:29:38;;;;;;;6.30;5.60;;;;;;;13.13;93.18;99894.28;5054824;28;20709;-76
2021/08/02 03:32:10;;;;;;;7.00;5.13;;;;;;;12.96;93.88;99869.53;5054225;28;20233;-76
2021/08/02 03:34:37;;;;;;;5.57;5.17;;;;;;;13.11;93.40;99868.97;5053800;28;20709;-76
2021/08/02 03:37:07;;;;;;;5.27;4.77;;;;;;;13.02;93.20;99892.03;5055251;28;20209;-76
2021/08/02 03:39:35;;;;;;;5.60;5.10;;;;;;;12.72;94.66;99866.09;5054700;28;20188;-76
2021/08/02 03:42:04;;;;;;;5.77;5.20;;;;;;;12.67;94.63;99860.19;5047887;28;20284;-76
2021/08/02 03:44:32;;;;;;;7.83;5.17;;;;;;;12.68;94.84;99840.91;5054034;28;20256;-76
2021/08/02 03:46:59;;;;;;;5.73;5.23;;;;;;;12.63;95.13;99842.88;5054834;28;20211;-76
2021/08/02 03:49:27;;;;;;;5.23;4.73;;;;;;;12.75;94.97;99845.03;5054880;28;20279;-76
2021/08/02 03:51:56;;;;;;;7.23;4.53;;;;;;;12.71;94.96;99860.00;5054217;28;20271;-76
2021/08/02 03:54:22;;;;;;;6.13;4.50;;;;;;;12.59;95.26;99857.00;5054577;28;20227;-76
2021/08/02 03:56:49;;;;;;;4.77;4.43;;;;;;;12.68;95.38;99854.88;5054475;28;20216;-76
2021/08/02 03:59:16;;;;;;;5.23;4.73;;;;;;;12.71;94.64;99873.09;5054352;28;20215;-76
2021/08/02 04:01:44;;;;;;;5.63;4.40;;;;;;;12.86;94.31;99889.16;5054601;28;20286;-76
2021/08/02 04:04:11;;;;;;;5.63;5.13;;;;;;;12.68;93.86;99911.63;5053538;28;20693;-76
2021/08/02 04:06:39;;;;;;;7.40;4.43;;;;;;;12.68;93.75;99919.47;5054511;28;20204;-76
2021/08/02 04:09:07;;;;;;;5.43;4.83;;;;;;;12.69;93.91;99924.66;5054544;28;20208;-76
2021/08/02 04:11:34;;;;;;;5.63;4.63;;;;;;;12.86;93.70;99918.84;5048376;28;20208;-76
2021/08/02 04:14:01;;;;;;;5.23;4.23;;;;;;;12.86;93.10;99936.28;5052966;28;20630;-76
2021/08/02 04:16:28;;;;;;;7.47;4.53;;;;;;;12.91;92.94;99950.09;5054002;28;20686;-76
2021/08/02 04:18:54;;;;;;;4.77;4.37;;;;;;;13.01;92.54;99968.94;5054475;28;20209;-76
2021/08/02 04:21:21;;;;;;;5.00;4.43;;;;;;;13.09;92.41;99967.75;5054185;28;20232;-76
2021/08/02 04:23:48;;;;;;;5.20;4.70;;;;;;;13.07;92.25;99981.81;5053175;28;20266;-76
2021/08/02 04:26:15;;;;;;;5.67;4.73;;;;;;;12.93;92.59;99958.75;5053772;28;20261;-76
2021/08/02 04:28:42;;;;;;;5.80;4.83;;;;;;;13.10;92.67;99964.22;5054100;28;20275;-76
2021/08/02 04:31:09;;;;;;;7.10;5.57;;;;;;;13.06;92.73;99973.13;5053374;28;20255;-76
2021/08/02 04:33:36;;;;;;;6.00;4.97;;;;;;;13.07;91.80;99982.66;5053190;28;20236;-76
2021/08/02 04:36:02;;;;;;;6.67;6.07;;;;;;;12.83;93.09;99971.31;5052760;28;20630;-76
2021/08/02 04:38:29;;;;;;;12.80;6.10;;;;;;;12.84;93.10;99954.72;5054058;28;20211;-76
2021/08/02 04:40:57;;;;;;;6.73;6.00;;;;;;;12.98;93.21;99948.94;5047858;28;20233;-76
2021/08/02 04:43:24;;;;;;;6.10;5.20;;;;;;;13.14;92.72;99954.50;5053047;28;20216;-76
2021/08/02 04:45:50;;;;;;;5.60;5.10;;;;;;;13.29;92.70;99966.16;5053064;28;20702;-76
2021/08/02 04:48:17;;;;;;;6.30;5.33;;;;;;;13.24;91.47;100002.16;5054178;28;20207;-76
2021/08/02 04:50:45;;;;;;;6.47;5.47;;;;;;;13.00;92.24;100009.16;5053654;28;20212;-76
2021/08/02 04:53:11;;;;;;;5.90;5.30;;;;;;;12.93;93.03;99982.31;5052678;28;20242;-76
2021/08/02 04:55:38;;;;;;;5.40;5.00;;;;;;;13.05;92.77;99974.00;5053402;28;20545;-76
2021/08/02 04:58:06;;;;;;;5.80;5.03;;;;;;;12.97;92.87;99985.69;5053968;28;20211;-76
2021/08/02 05:00:33;;;;;;;5.93;5.50;;;;;;;13.04;92.98;99977.56;5053238;28;20211;-76
2021/08/02 05:03:01;;;;;;;6.43;5.07;;;;;;;13.21;92.71;99989.19;5052971;28;20243;-76
2021/08/02 05:05:27;;;;;;;5.37;4.87;;;;;;;13.39;91.54;100017.34;5054004;28;20230;-76
2021/08/02 05:07:54;;;;;;;6.27;4.93;;;;;;;13.54;91.15;100036.91;5053253;28;20205;-76
2021/08/02 05:10:21;;;;;;;9.50;4.90;;;;;;;13.64;90.08;100075.00;5049367;28;20648;-76
2021/08/02 05:12:47;;;;;;;4.53;4.10;;;;;;;13.77;89.15;100104.22;5050940;28;20287;-75
2021/08/02 05:15:15;;;;;;;4.47;3.90;;;;;;;13.84;88.54;100123.22;5053318;28;20227;-76
2021/08/02 05:17:42;;;;;;;4.80;4.27;;;;;;;13.91;88.59;100137.81;5053287;28;20676;-76
2021/08/02 05:20:09;;;;;;;5.93;3.93;;;;;;;13.89;87.93;100160.63;5053044;28;20671;-76
2021/08/02 05:22:36;;;;;;;4.63;4.03;;;;;;;14.00;87.88;100163.72;5051979;28;20269;-76
2021/08/02 05:25:02;;;;;;;4.57;3.87;;;;;;;14.06;88.02;100158.22;5053433;28;20250;-75
2021/08/02 05:27:29;;;;;;;4.30;3.90;;;;;;;14.12;88.17;100161.56;5052917;28;20254;-76
2021/08/02 05:29:55;;;;;;;6.20;3.67;;;;;;;14.15;87.60;100162.25;5052636;28;20210;-76
2021/08/02 05:32:23;;;;;;;6.73;3.67;;;;;;;14.17;88.03;100156.97;5052212;28;20231;-76
2021/08/02 05:34:50;;;;;;;5.20;3.00;;;;;;;14.21;87.45;100159.44;5051734;28;20269;-76
2021/08/02 05:37:16;;;;;;;3.77;3.33;;;;;;;14.16;87.74;100160.53;5053109;28;20215;-76
2021/08/02 05:39:42;;;;;;;3.27;3.07;;;;;;;14.06;87.92;100154.75;5052835;28;20205;-76
2021/08/02 05:42:10;;;;;;;4.87;3.00;;;;;;;13.98;88.26;100147.16;5045375;28;20238;-76
2021/08/02 05:44:36;;;;;;;3.20;2.90;;;;;;;13.94;88.43;100144.72;5052041;28;20291;-76
2021/08/02 05:47:03;;;;;;;3.30;3.00;;;;;;;13.98;88.50;100143.69;5052269;28;20795;-76
2021/08/02 05:49:31;;;;;;;5.30;3.37;;;;;;;13.87;89.01;100131.84;5054904;28;20245;-78
2021/08/02 05:51:58;;;;;;;4.67;2.87;;;;;;;13.85;88.85;100131.00;5059879;28;20235;-76
2021/08/02 05:54:25;;;;;;;6.97;2.87;;;;;;;13.96;89.16;100120.13;5060258;28;20227;-78
2021/08/02 05:56:51;;;;;;;3.80;3.00;;;;;;;14.03;88.50;100137.38;5061452;28;20215;-78
2021/08/02 05:59:18;;;;;;;2.90;2.63;;;;;;;14.12;88.79;100132.69;5060348;28;20212;-77
2021/08/02 06:01:44;;;;;;;3.23;2.87;;;;;;;14.02;88.48;100155.78;5060433;28;20254;-78
2021/08/02 06:04:11;;;;;;;4.17;2.70;;;;;;;13.97;87.40;100171.69;5059494;28;20261;-77
2021/08/02 06:06:38;;;;;;;3.83;2.47;;;;;;;13.92;88.32;100164.94;5060653;28;20208;-78
2021/08/02 06:09:05;;;;;;;5.43;2.53;;;;;;;14.02;87.91;100174.16;5058619;28;20616;-78
2021/08/02 06:11:31;;;;;;;2.87;2.23;;;;;;;14.08;87.88;100176.56;5051934;28;20208;-77
2021/08/02 06:13:58;;;;;;;3.03;2.70;;;;;;;14.06;87.32;100191.50;5046821;28;20301;-77
2021/08/02 06:16:24;;;;;;;3.67;2.30;;;;;;;14.15;87.39;100193.75;5058358;28;20202;-78
2021/08/02 06:18:51;;;;;;;2.10;1.80;;;;;;;14.19;86.32;100229.50;5058113;28;20215;-78
2021/08/02 06:21:17;;;;;;;3.07;2.10;;;;;;;14.19;86.98;100211.13;5058402;28;20204;-79
2021/08/02 06:23:45;;;;;;;5.57;2.00;;;;;;;14.21;85.58;100260.94;5057578;28;20670;-78
2021/08/02 06:26:11;;;;;;;6.20;2.00;;;;;;;14.20;85.58;100270.59;5061109;28;20206;-78
2021/08/02 06:28:38;;;;;;;5.10;2.00;;;;;;;14.18;85.67;100267.16;5060234;28;20269;-78
2021/08/02 06:31:04;;;;;;;3.50;2.30;;;;;;;14.29;86.65;100243.13;5059929;28;20250;-78
2021/08/02 06:33:31;;;;;;;4.60;2.50;;;;;;;14.30;85.34;100273.72;5060189;28;20250;-78
2021/08/02 06:35:57;;;;;;;2.87;2.03;;;;;;;14.29;86.67;100240.50;5060205;28;20701;-78
2021/08/02 06:38:24;;;;;;;3.23;1.77;;;;;;;14.41;85.41;100271.56;5059702;28;20217;-78
2021/08/02 06:40:51;;;;;;;3.40;2.03;;;;;;;14.47;84.79;100294.13;5053230;28;20634;-78
2021/08/02 06:43:18;;;;;;;3.47;2.23;;;;;;;14.53;84.31;100329.78;5059947;28;20220;-77
2021/08/02 06:45:44;;;;;;;2.80;1.60;;;;;;;14.57;83.77;100339.28;5059813;28;20227;-78
2021/08/02 06:48:11;;;;;;;4.10;1.80;;;;;;;14.54;83.87;100335.00;5061362;28;20208;-78
2021/08/02 06:50:37;;;;;;;4.17;1.60;;;;;;;14.53;83.50;100343.81;5061177;28;20241;-77
2021/08/02 06:53:03;;;;;;;2.77;2.47;;;;;;;14.50;84.00;100326.38;5059311;28;20231;-78
2021/08/02 06:55:30;;;;;;;2.10;1.90;;;;;;;14.60;84.13;100326.91;5063974;28;20226;-78
2021/08/02 06:57:58;;;;;;;4.30;1.90;;;;;;;14.60;84.15;100329.53;5062527;28;20206;-78
2021/08/02 07:00:24;;;;;;;3.13;1.50;;;;;;;14.68;83.32;100342.41;5064359;28;20239;-78
2021/08/02 07:02:51;;;;;;;4.57;1.80;;;;;;;14.64;83.23;100360.03;5064979;28;20253;-77
2021/08/02 07:05:19;;;;;;;2.63;1.73;;;;;;;14.74;82.97;100362.34;5063442;28;20204;-77
2021/08/02 07:07:46;;;;;;;5.03;1.73;;;;;;;14.81;82.55;100396.22;5061307;28;20670;-77
2021/08/02 07:10:13;;;;;;;2.20;1.50;;;;;;;14.88;82.28;100388.94;5058728;28;20217;-77
2021/08/02 07:12:39;;;;;;;1.83;1.10;;;;;;;14.92;81.15;100429.13;5057484;28;20239;-77
2021/08/02 07:15:09;;;;;;;2.37;1.40;;;;;;;14.89;80.44;100451.97;5060173;28;20232;-77
2021/08/02 07:17:35;;;;;;;1.30;1.20;;;;;;;15.08;80.37;100460.03;5059882;28;20211;-77
2021/08/02 07:20:01;;;;;;;1.63;1.20;;;;;;;15.19;79.00;100517.47;5059031;28;20206;-77
2021/08/02 07:22:28;;;;;;;1.53;1.00;;;;;;;15.23;77.71;100565.56;5060293;28;20301;-78
2021/08/02 07:24:55;;;;;;;3.70;1.43;;;;;;;15.25;78.12;100551.44;5060406;28;20257;-77
2021/08/02 07:27:21;;;;;;;2.97;1.17;;;;;;;15.22;77.00;100601.53;5059903;28;20212;-77
2021/08/02 07:29:48;;;;;;;1.90;1.00;;;;;;;15.22;76.93;100601.53;5059619;28;20216;-77
2021/08/02 07:32:15;;;;;;;3.43;1.27;;;;;;;15.08;76.87;100603.75;5061232;28;20282;-77
2021/08/02 07:34:42;;;;;;;5.60;1.57;;;;;;;15.01;78.70;100549.69;5059849;28;20227;-77
2021/08/02 07:37:08;;;;;;;2.40;1.17;;;;;;;15.18;77.46;100571.00;5061298;28;20212;-77
2021/08/02 07:39:35;;;;;;;1.67;1.10;;;;;;;15.28;77.53;100574.13;5061961;28;20211;-77
2021/08/02 07:42:01;;;;;;;4.67;1.27;;;;;;;15.36;77.22;100589.63;5054476;28;20232;-77
2021/08/02 07:44:28;;;;;;;1.67;1.23;;;;;;;15.25;74.84;100684.72;5061926;28;20197;-77
2021/08/02 07:46:54;;;;;;;4.57;1.13;;;;;;;15.25;74.98;100685.56;5061130;28;20245;-77
2021/08/02 07:49:22;;;;;;;1.07;0.97;;;;;;;15.42;75.47;100656.06;5062125;28;20212;-77
2021/08/02 07:51:48;;;;;;;3.57;1.13;;;;;;;15.44;75.21;100669.13;5062025;28;20231;-77
2021/08/02 07:54:15;;;;;;;2.37;1.00;;;;;;;15.35;74.83;100670.31;5061705;28;20253;-77
2021/08/02 07:56:41;;;;;;;3.63;1.63;;;;;;;15.34;74.62;100681.78;5061571;28;20217;-77
2021/08/02 07:59:08;;;;;;;2.93;1.30;;;;;;;15.43;74.91;100681.44;5061769;28;20230;-77
2021/08/02 08:01:34;;;;;;;2.10;1.20;;;;;;;15.64;75.42;100637.72;5059786;28;20298;-77
2021/08/02 08:04:01;;;;;;;1.83;1.10;;;;;;;15.66;74.13;100691.16;5059470;28;20211;-76
2021/08/02 08:06:29;;;;;;;2.90;1.20;;;;;;;15.58;74.47;100695.84;5061152;28;20207;-77
2021/08/02 08:08:55;;;;;;;2.47;1.03;;;;;;;15.57;75.29;100661.66;5061025;28;20206;-77
2021/08/02 08:11:22;;;;;;;3.00;1.20;;;;;;;15.68;75.21;100654.25;5050929;28;20204;-77
2021/08/02 08:13:48;;;;;;;2.03;1.20;;;;;;;15.72;75.29;100647.06;5057004;28;20211;-77
2021/08/02 08:16:15;;;;;;;2.10;1.10;;;;;;;15.73;75.39;100648.84;5054231;28;20289;-77
2021/08/02 08:18:41;;;;;;;2.23;0.90;;;;;;;15.72;74.63;100686.56;5060726;28;20209;-77
2021/08/02 08:21:08;;;;;;;3.37;1.00;;;;;;;15.59;73.99;100700.16;5059420;28;20743;-78
2021/08/02 08:23:35;;;;;;;1.83;1.00;;;;;;;15.73;73.74;100694.44;5059085;28;20232;-77
2021/08/02 08:26:03;;;;;;;1.20;1.07;;;;;;;15.92;74.09;100702.53;5059033;28;20262;-77
2021/08/02 08:28:30;;;;;;;1.13;0.80;;;;;;;16.20;73.64;100690.97;5059613;28;20213;-77
2021/08/02 08:30:56;;;;;;;2.13;0.90;;;;;;;16.25;70.43;100802.25;5059682;28;20212;-77
2021/08/02 08:33:26;;;;;;;1.90;0.80;;;;;;;16.19;68.63;100892.03;5057815;28;20228;-77
2021/08/02 08:35:53;;;;;;;1.10;1.00;;;;;;;16.15;70.02;100845.66;5057486;28;20236;-77
2021/08/02 08:38:20;;;;;;;3.70;0.97;;;;;;;16.25;70.53;100795.25;5058516;28;20201;-78
2021/08/02 08:40:49;;;;;;;3.63;1.30;;;;;;;16.13;69.85;100845.72;5057296;28;20232;-77
2021/08/02 08:43:17;;;;;;;5.47;1.00;;;;;;;16.15;70.90;100793.84;5055855;28;20675;-77
2021/08/02 08:45:44;;;;;;;1.40;1.03;;;;;;;16.22;70.11;100813.78;5056398;28;20198;-77
2021/08/02 08:48:11;;;;;;;1.47;1.30;;;;;;;16.34;70.40;100807.19;5057182;28;20213;-77
2021/08/02 08:50:38;;;;;;;3.63;1.40;;;;;;;16.38;70.19;100808.81;5057947;28;20209;-77
2021/08/02 08:53:05;;;;;;;3.63;1.30;;;;;;;16.38;68.83;100879.94;5056609;28;20316;-77
2021/08/02 08:55:32;;;;;;;1.23;0.93;;;;;;;16.47;67.08;100926.16;5056782;28;20480;-78
2021/08/02 08:58:03;;;;;;;2.37;1.00;;;;;;;16.27;68.06;100914.59;5058547;28;20231;-77
2021/08/02 09:00:30;;;;;;;2.00;0.83;;;;;;;16.32;67.88;100903.03;5057005;28;20204;-76
2021/08/02 09:02:57;;;;;;;2.57;0.97;;;;;;;16.41;67.26;100942.19;5056460;28;20633;-77
2021/08/02 09:05:32;;;;;;;2.73;1.20;;;;;;;16.55;67.31;100923.25;5057053;28;20262;-77
2021/08/02 09:07:58;;;;;;;1.83;1.33;;;;;;;16.62;64.22;101028.44;5058488;28;20599;-78
2021/08/02 09:10:25;;;;;;;1.70;0.90;;;;;;;16.83;63.86;101066.41;5046939;28;20259;-77
2021/08/02 09:12:53;;;;;;;1.30;0.70;;;;;;;16.84;62.70;101109.44;5055643;28;20225;-77
2021/08/02 09:15:33;;;;;;;1.43;1.27;;;;;;;16.73;62.40;101122.09;5052936;28;20726;-77
2021/08/02 09:18:00;;;;;;;2.47;0.60;;;;;;;16.86;63.65;101076.84;5046748;28;20823;-78
2021/08/02 09:20:27;;;;;;;1.27;0.87;;;;;;;17.11;63.11;101088.31;5055476;28;20209;-76
2021/08/02 09:22:55;;;;;;;1.03;0.80;;;;;;;17.18;62.27;101103.84;5053000;28;20282;-77
2021/08/02 09:25:24;;;;;;;1.33;1.20;;;;;;;17.03;63.54;101075.41;5056252;28;20208;-77
2021/08/02 09:27:52;;;;;;;3.10;0.90;;;;;;;16.86;65.14;101003.00;5054364;28;20621;-77
2021/08/02 09:30:21;;;;;;;2.97;0.70;;;;;;;16.75;63.96;101047.34;5056264;28;20206;-77
2021/08/02 09:32:52;;;;;;;2.37;0.87;;;;;;;16.70;66.05;100964.03;5055230;28;20225;-77
2021/08/02 09:35:30;;;;;;;1.73;0.80;;;;;;;16.54;65.98;100961.94;5050943;28;20767;-75
2021/08/02 09:37:58;;;;;;;2.30;0.73;;;;;;;16.58;66.81;100933.72;5052305;28;20638;-76
2021/08/02 09:40:25;;;;;;;3.40;0.80;;;;;;;16.47;66.43;100934.06;5047689;28;20286;-76
2021/08/02 09:42:56;;;;;;;4.73;1.00;;;;;;;16.38;66.75;100937.91;5050838;28;20225;-76
2021/08/02 09:45:24;;;;;;;2.20;0.70;;;;;;;16.33;67.44;100910.00;5052417;28;20205;-76
2021/08/02 09:47:52;;;;;;;0.90;0.80;;;;;;;16.30;67.57;100900.44;5051976;28;20213;-76
2021/08/02 09:50:27;;;;;;;1.47;0.80;;;;;;;16.39;67.41;100905.41;5051837;28;20550;-76
2021/08/02 09:52:54;;;;;;;1.10;0.80;;;;;;;16.35;67.02;100911.69;5052529;28;20227;-76
2021/08/02 09:55:21;;;;;;;2.53;0.80;;;;;;;16.52;67.49;100892.63;5053629;28;20232;-77
2021/08/02 09:57:50;;;;;;;1.93;1.07;;;;;;;16.70;67.63;100893.72;4352839;28;10000755;-76
2021/08/02 10:00:18;;;;;;;1.93;1.00;;;;;;;16.75;67.18;100912.88;5048429;28;20565;-76
2021/08/02 10:02:46;;;;;;;2.17;1.20;;;;;;;16.87;68.14;100885.22;5048464;28;20236;-76
2021/08/02 10:05:15;;;;;;;1.97;0.77;;;;;;;16.73;66.52;100932.28;5049341;28;20440;-76
2021/08/02 10:07:43;;;;;;;2.57;0.80;;;;;;;16.78;66.98;100919.81;5049297;28;20224;-76
2021/08/02 10:10:10;;;;;;;0.97;0.90;;;;;;;16.70;67.31;100909.53;5046081;28;20342;-76
2021/08/02 10:12:41;;;;;;;1.10;0.93;;;;;;;16.70;67.17;100899.00;5045107;28;20275;-76
2021/08/02 10:15:09;;;;;;;2.83;1.03;;;;;;;16.66;67.32;100897.38;5048317;28;20285;-76
2021/08/02 10:17:37;;;;;;;3.77;1.37;;;;;;;16.59;67.99;100877.44;5048957;28;20208;-77
2021/08/02 10:20:05;;;;;;;1.43;0.90;;;;;;;16.65;68.30;100858.78;5048803;28;20219;-76
2021/08/02 10:22:43;;;;;;;1.20;0.80;;;;;;;16.66;68.08;100860.47;5047851;28;20717;-76
2021/08/02 10:25:10;;;;;;;1.60;1.00;;;;;;;16.74;67.74;100876.00;5049086;28;20220;-76
2021/08/02 10:27:37;;;;;;;2.87;0.90;;;;;;;16.88;67.81;100873.75;5048267;28;21049;-75
2021/08/02 10:30:04;;;;;;;1.10;0.97;;;;;;;16.85;66.79;100918.69;5048891;28;20298;-76
2021/08/02 10:32:32;;;;;;;1.90;1.00;;;;;;;17.01;67.32;100903.16;5047778;28;20225;-76
2021/08/02 10:34:59;;;;;;;1.37;1.27;;;;;;;17.20;67.19;100890.94;5046421;28;20343;-76
2021/08/02 10:37:31;;;;;;;2.47;1.03;;;;;;;17.46;66.15;100941.84;5048936;28;20623;-76
2021/08/02 10:40:08;;;;;;;3.23;1.20;;;;;;;17.24;65.25;100976.13;5048140;28;20296;-75
2021/08/02 10:42:45;;;;;;;1.23;1.00;;;;;;;17.28;64.17;100996.19;5044158;28;20225;-76
2021/08/02 10:45:11;;;;;;;2.47;1.33;;;;;;;17.31;64.89;100995.25;5048296;28;21030;-77
2021/08/02 10:47:39;;;;;;;1.60;1.00;;;;;;;17.22;64.79;100981.47;5048886;28;20255;-74
2021/08/02 10:50:07;;;;;;;1.23;0.90;;;;;;;17.20;64.58;100988.56;5048296;28;20263;-76
2021/08/02 10:52:34;;;;;;;1.17;0.80;;;;;;;17.36;64.02;101001.19;5047676;28;20975;-76
2021/08/02 10:55:02;;;;;;;1.47;0.97;;;;;;;17.48;62.82;101037.66;5048598;28;20259;-76
2021/08/02 10:57:29;;;;;;;1.43;1.17;;;;;;;17.50;63.42;101037.59;5044129;28;20222;-75
2021/08/02 10:59:57;;;;;;;1.63;1.03;;;;;;;17.60;62.96;101052.16;5028063;28;20206;-76
2021/08/02 11:02:24;;;;;;;3.30;1.17;;;;;;;17.80;62.99;101039.06;5027431;28;20233;-75
2021/08/02 11:04:55;;;;;;;2.67;0.90;;;;;;;17.84;60.84;101125.22;5028242;28;20279;-76
2021/08/02 11:07:21;;;;;;;1.10;1.00;;;;;;;17.98;60.67;101137.03;5028985;28;20211;-77
2021/08/02 11:09:48;;;;;;;0.73;0.73;;;;;;;18.18;59.58;101189.13;5028352;28;20275;-75
2021/08/02 11:12:15;;;;;;;1.20;0.97;;;;;;;18.44;58.20;101204.81;5047268;28;20238;-75
2021/08/02 11:14:50;;;;;;;1.97;0.87;;;;;;;18.58;59.54;101185.75;5048153;28;20201;-75
2021/08/02 11:17:17;;;;;;;2.13;0.90;;;;;;;18.76;56.02;101312.88;5047795;28;20785;-75
2021/08/02 11:19:44;;;;;;;1.93;0.80;;;;;;;18.51;56.05;101345.53;5048136;28;20276;-75
2021/08/02 11:22:11;;;;;;;2.07;1.13;;;;;;;18.54;57.44;101262.63;5047203;28;20233;-74
2021/08/02 11:24:51;;;;;;;2.67;1.03;;;;;;;18.38;58.65;101230.63;5047977;28;20217;-75
2021/08/02 11:27:18;;;;;;;0.80;0.70;;;;;;;18.32;56.81;101299.59;5046342;28;20990;-74
2021/08/02 11:29:49;;;;;;;0.90;0.80;;;;;;;18.41;56.62;101297.47;5037952;28;20203;-74
2021/08/02 11:32:15;;;;;;;1.57;0.90;;;;;;;18.51;57.46;101257.44;5039820;28;20234;-74
2021/08/02 11:34:43;;;;;;;0.93;0.83;;;;;;;18.49;58.00;101236.34;5046159;28;20996;-75